Avinger, Texas
Current Conditions -  °F | °C
As of 7:15 PM on Friday 24 Oct 2014 (Local Time) from KOSA Reporting Station
Clear Clear  
Wind Chill: 69°   Ceiling: Unl
Heat Index: 69°   Visibility: 10mi
Dew Point: 61°   Wind: 3mph
Humidity: 74%   Direction: 140°SE
Pressure: 30.11"   Gusts: NA
Location:  32.9°N, 94.56°W
Report Text: KOSA 250015Z AUTO 14003KT 10SM CLR 21/16 A3011 RMK AO1 T02070160
Loading
Personal Weather Stations






























Interactive Weather Map
Tropical Storm Tracking
New forecast layout! Learn more

10-Day Weather Forecast

Advertisements
Track Severe Weather on mobile